sensor_id;sensor_type;location;lat;lon;timestamp;P1;durP1;ratioP1;P2;durP2;ratioP2
8704;SDS011;4389;41.932;25.904;2024-03-07T00:02:08;16.53;;;11.27;;
8704;SDS011;4389;41.932;25.904;2024-03-07T00:04:36;17.77;;;11.57;;
8704;SDS011;4389;41.932;25.904;2024-03-07T00:07:03;19.33;;;12.10;;
8704;SDS011;4389;41.932;25.904;2024-03-07T00:09:31;16.50;;;11.33;;
8704;SDS011;4389;41.932;25.904;2024-03-07T00:11:58;15.57;;;11.30;;
8704;SDS011;4389;41.932;25.904;2024-03-07T00:14:25;17.97;;;11.67;;
8704;SDS011;4389;41.932;25.904;2024-03-07T00:16:53;17.13;;;11.43;;
8704;SDS011;4389;41.932;25.904;2024-03-07T00:19:20;20.33;;;11.40;;
8704;SDS011;4389;41.932;25.904;2024-03-07T00:21:52;19.60;;;12.07;;
8704;SDS011;4389;41.932;25.904;2024-03-07T00:24:18;17.17;;;11.60;;
8704;SDS011;4389;41.932;25.904;2024-03-07T00:26:45;16.00;;;10.97;;
8704;SDS011;4389;41.932;25.904;2024-03-07T00:29:15;14.67;;;11.17;;
8704;SDS011;4389;41.932;25.904;2024-03-07T00:31:43;14.20;;;11.10;;
8704;SDS011;4389;41.932;25.904;2024-03-07T00:34:10;16.90;;;11.50;;
8704;SDS011;4389;41.932;25.904;2024-03-07T00:36:39;15.67;;;11.20;;
8704;SDS011;4389;41.932;25.904;2024-03-07T00:39:07;15.50;;;11.77;;
8704;SDS011;4389;41.932;25.904;2024-03-07T00:41:37;14.73;;;11.67;;
8704;SDS011;4389;41.932;25.904;2024-03-07T00:44:04;16.83;;;12.13;;
8704;SDS011;4389;41.932;25.904;2024-03-07T00:46:31;16.87;;;11.77;;
8704;SDS011;4389;41.932;25.904;2024-03-07T00:48:58;21.03;;;12.70;;
8704;SDS011;4389;41.932;25.904;2024-03-07T00:51:25;19.07;;;11.87;;
8704;SDS011;4389;41.932;25.904;2024-03-07T00:53:51;16.53;;;11.93;;
8704;SDS011;4389;41.932;25.904;2024-03-07T00:56:19;20.57;;;10.27;;
8704;SDS011;4389;41.932;25.904;2024-03-07T00:58:47;22.03;;;11.87;;
8704;SDS011;4389;41.932;25.904;2024-03-07T01:01:14;24.90;;;12.20;;
8704;SDS011;4389;41.932;25.904;2024-03-07T01:03:41;18.67;;;12.10;;
8704;SDS011;4389;41.932;25.904;2024-03-07T01:06:07;19.77;;;12.63;;
8704;SDS011;4389;41.932;25.904;2024-03-07T01:08:34;20.37;;;12.10;;
8704;SDS011;4389;41.932;25.904;2024-03-07T01:11:02;18.60;;;11.77;;
8704;SDS011;4389;41.932;25.904;2024-03-07T01:13:36;18.17;;;12.03;;
8704;SDS011;4389;41.932;25.904;2024-03-07T01:16:03;14.47;;;11.20;;
8704;SDS011;4389;41.932;25.904;2024-03-07T01:18:30;19.53;;;11.50;;
8704;SDS011;4389;41.932;25.904;2024-03-07T01:20:57;17.40;;;11.47;;
8704;SDS011;4389;41.932;25.904;2024-03-07T01:23:23;15.93;;;11.53;;
8704;SDS011;4389;41.932;25.904;2024-03-07T01:25:50;18.20;;;12.70;;
8704;SDS011;4389;41.932;25.904;2024-03-07T01:28:17;18.07;;;12.33;;
8704;SDS011;4389;41.932;25.904;2024-03-07T01:30:45;16.23;;;11.87;;
8704;SDS011;4389;41.932;25.904;2024-03-07T01:33:12;17.13;;;11.93;;
8704;SDS011;4389;41.932;25.904;2024-03-07T01:35:38;23.10;;;12.40;;
8704;SDS011;4389;41.932;25.904;2024-03-07T01:38:05;14.10;;;11.13;;
8704;SDS011;4389;41.932;25.904;2024-03-07T01:40:33;18.97;;;11.90;;
8704;SDS011;4389;41.932;25.904;2024-03-07T01:43:01;24.60;;;11.70;;
8704;SDS011;4389;41.932;25.904;2024-03-07T01:45:28;19.67;;;11.93;;
8704;SDS011;4389;41.932;25.904;2024-03-07T01:47:56;25.20;;;12.30;;
8704;SDS011;4389;41.932;25.904;2024-03-07T01:50:23;21.43;;;11.47;;
8704;SDS011;4389;41.932;25.904;2024-03-07T01:52:50;20.43;;;12.27;;
8704;SDS011;4389;41.932;25.904;2024-03-07T01:55:20;19.47;;;13.37;;
8704;SDS011;4389;41.932;25.904;2024-03-07T01:57:48;22.47;;;13.23;;
8704;SDS011;4389;41.932;25.904;2024-03-07T02:00:15;19.87;;;11.40;;
8704;SDS011;4389;41.932;25.904;2024-03-07T02:02:43;20.97;;;12.27;;
8704;SDS011;4389;41.932;25.904;2024-03-07T02:05:12;15.77;;;11.67;;
8704;SDS011;4389;41.932;25.904;2024-03-07T02:07:39;20.03;;;11.70;;
8704;SDS011;4389;41.932;25.904;2024-03-07T02:10:06;15.80;;;12.13;;
8704;SDS011;4389;41.932;25.904;2024-03-07T02:12:34;18.20;;;12.57;;
8704;SDS011;4389;41.932;25.904;2024-03-07T02:15:01;17.77;;;12.03;;
8704;SDS011;4389;41.932;25.904;2024-03-07T02:17:28;18.67;;;12.23;;
8704;SDS011;4389;41.932;25.904;2024-03-07T02:19:55;16.53;;;11.30;;
8704;SDS011;4389;41.932;25.904;2024-03-07T02:22:24;17.03;;;11.67;;
8704;SDS011;4389;41.932;25.904;2024-03-07T02:24:52;21.13;;;11.17;;
8704;SDS011;4389;41.932;25.904;2024-03-07T02:27:19;17.23;;;11.37;;
8704;SDS011;4389;41.932;25.904;2024-03-07T02:29:46;24.57;;;11.80;;
8704;SDS011;4389;41.932;25.904;2024-03-07T02:32:12;18.03;;;11.97;;
8704;SDS011;4389;41.932;25.904;2024-03-07T02:34:39;17.40;;;11.10;;
8704;SDS011;4389;41.932;25.904;2024-03-07T02:37:06;23.13;;;11.23;;
8704;SDS011;4389;41.932;25.904;2024-03-07T02:39:35;14.37;;;11.47;;
8704;SDS011;4389;41.932;25.904;2024-03-07T02:42:02;16.00;;;11.23;;
8704;SDS011;4389;41.932;25.904;2024-03-07T02:44:29;14.97;;;11.77;;
8704;SDS011;4389;41.932;25.904;2024-03-07T02:46:56;21.97;;;11.83;;
8704;SDS011;4389;41.932;25.904;2024-03-07T02:49:23;19.83;;;11.67;;
8704;SDS011;4389;41.932;25.904;2024-03-07T02:51:50;18.23;;;10.90;;
8704;SDS011;4389;41.932;25.904;2024-03-07T02:54:17;17.40;;;10.60;;
8704;SDS011;4389;41.932;25.904;2024-03-07T02:56:45;15.90;;;11.57;;
8704;SDS011;4389;41.932;25.904;2024-03-07T02:59:12;19.57;;;11.87;;
8704;SDS011;4389;41.932;25.904;2024-03-07T03:01:39;16.27;;;11.17;;
8704;SDS011;4389;41.932;25.904;2024-03-07T03:04:06;19.83;;;11.83;;
8704;SDS011;4389;41.932;25.904;2024-03-07T03:06:33;20.30;;;11.43;;
8704;SDS011;4389;41.932;25.904;2024-03-07T03:09:00;19.83;;;11.07;;
8704;SDS011;4389;41.932;25.904;2024-03-07T03:11:30;21.10;;;10.73;;
8704;SDS011;4389;41.932;25.904;2024-03-07T03:13:58;15.40;;;11.87;;
8704;SDS011;4389;41.932;25.904;2024-03-07T03:16:25;16.43;;;11.60;;
8704;SDS011;4389;41.932;25.904;2024-03-07T03:18:51;21.23;;;11.73;;
8704;SDS011;4389;41.932;25.904;2024-03-07T03:21:19;15.47;;;11.50;;
8704;SDS011;4389;41.932;25.904;2024-03-07T03:23:47;16.03;;;11.40;;
8704;SDS011;4389;41.932;25.904;2024-03-07T03:26:14;18.00;;;11.60;;
8704;SDS011;4389;41.932;25.904;2024-03-07T03:28:41;18.80;;;11.70;;
8704;SDS011;4389;41.932;25.904;2024-03-07T03:31:09;25.93;;;11.90;;
8704;SDS011;4389;41.932;25.904;2024-03-07T03:33:39;20.60;;;11.80;;
8704;SDS011;4389;41.932;25.904;2024-03-07T03:36:06;17.73;;;12.37;;
8704;SDS011;4389;41.932;25.904;2024-03-07T03:38:33;24.47;;;11.17;;
8704;SDS011;4389;41.932;25.904;2024-03-07T03:41:00;17.50;;;11.73;;
8704;SDS011;4389;41.932;25.904;2024-03-07T03:43:27;21.47;;;11.83;;
8704;SDS011;4389;41.932;25.904;2024-03-07T03:45:54;19.77;;;12.13;;
8704;SDS011;4389;41.932;25.904;2024-03-07T03:48:22;16.50;;;11.43;;
8704;SDS011;4389;41.932;25.904;2024-03-07T03:50:49;20.00;;;13.07;;
8704;SDS011;4389;41.932;25.904;2024-03-07T03:53:17;21.37;;;13.43;;
8704;SDS011;4389;41.932;25.904;2024-03-07T03:55:44;17.47;;;12.57;;
8704;SDS011;4389;41.932;25.904;2024-03-07T03:58:11;16.37;;;11.30;;
8704;SDS011;4389;41.932;25.904;2024-03-07T04:00:37;18.87;;;11.77;;
8704;SDS011;4389;41.932;25.904;2024-03-07T04:03:04;19.50;;;13.07;;
8704;SDS011;4389;41.932;25.904;2024-03-07T04:05:33;14.93;;;11.77;;
8704;SDS011;4389;41.932;25.904;2024-03-07T04:08:00;21.47;;;12.13;;
8704;SDS011;4389;41.932;25.904;2024-03-07T04:10:27;19.23;;;11.63;;
8704;SDS011;4389;41.932;25.904;2024-03-07T04:12:54;16.77;;;11.67;;
8704;SDS011;4389;41.932;25.904;2024-03-07T04:15:21;15.80;;;12.27;;
8704;SDS011;4389;41.932;25.904;2024-03-07T04:17:52;23.30;;;14.90;;
8704;SDS011;4389;41.932;25.904;2024-03-07T04:20:19;19.37;;;13.30;;
8704;SDS011;4389;41.932;25.904;2024-03-07T04:22:47;22.13;;;13.37;;
8704;SDS011;4389;41.932;25.904;2024-03-07T04:25:14;20.63;;;13.03;;
8704;SDS011;4389;41.932;25.904;2024-03-07T04:27:41;20.17;;;12.67;;
8704;SDS011;4389;41.932;25.904;2024-03-07T04:30:07;16.43;;;13.30;;
8704;SDS011;4389;41.932;25.904;2024-03-07T04:32:35;21.37;;;12.50;;
8704;SDS011;4389;41.932;25.904;2024-03-07T04:35:03;22.67;;;12.40;;
8704;SDS011;4389;41.932;25.904;2024-03-07T04:37:33;23.20;;;14.10;;
8704;SDS011;4389;41.932;25.904;2024-03-07T04:40:04;19.50;;;14.70;;
8704;SDS011;4389;41.932;25.904;2024-03-07T04:42:40;20.57;;;14.13;;
8704;SDS011;4389;41.932;25.904;2024-03-07T04:45:08;24.53;;;14.17;;
8704;SDS011;4389;41.932;25.904;2024-03-07T04:47:38;19.57;;;13.90;;
8704;SDS011;4389;41.932;25.904;2024-03-07T04:50:05;26.30;;;15.03;;
8704;SDS011;4389;41.932;25.904;2024-03-07T04:52:33;18.93;;;13.30;;
8704;SDS011;4389;41.932;25.904;2024-03-07T04:55:00;19.83;;;13.83;;
8704;SDS011;4389;41.932;25.904;2024-03-07T04:57:28;17.93;;;13.57;;
8704;SDS011;4389;41.932;25.904;2024-03-07T04:59:54;27.70;;;15.47;;
8704;SDS011;4389;41.932;25.904;2024-03-07T05:02:22;24.37;;;18.03;;
8704;SDS011;4389;41.932;25.904;2024-03-07T05:04:49;29.87;;;17.73;;
8704;SDS011;4389;41.932;25.904;2024-03-07T05:07:17;23.77;;;17.07;;
8704;SDS011;4389;41.932;25.904;2024-03-07T05:09:44;25.43;;;16.13;;
8704;SDS011;4389;41.932;25.904;2024-03-07T05:12:11;26.03;;;16.30;;
8704;SDS011;4389;41.932;25.904;2024-03-07T05:14:39;25.80;;;15.57;;
8704;SDS011;4389;41.932;25.904;2024-03-07T05:17:06;18.83;;;15.30;;
8704;SDS011;4389;41.932;25.904;2024-03-07T05:19:34;22.60;;;16.60;;
8704;SDS011;4389;41.932;25.904;2024-03-07T05:22:01;24.63;;;16.10;;
8704;SDS011;4389;41.932;25.904;2024-03-07T05:24:31;24.57;;;16.00;;
8704;SDS011;4389;41.932;25.904;2024-03-07T05:26:59;24.33;;;15.80;;
8704;SDS011;4389;41.932;25.904;2024-03-07T05:29:25;27.57;;;17.37;;
8704;SDS011;4389;41.932;25.904;2024-03-07T05:31:54;26.27;;;16.63;;
8704;SDS011;4389;41.932;25.904;2024-03-07T05:34:20;21.20;;;15.00;;
8704;SDS011;4389;41.932;25.904;2024-03-07T05:36:48;24.53;;;15.60;;
8704;SDS011;4389;41.932;25.904;2024-03-07T05:39:16;25.37;;;16.13;;
8704;SDS011;4389;41.932;25.904;2024-03-07T05:41:44;26.50;;;16.53;;
8704;SDS011;4389;41.932;25.904;2024-03-07T05:44:11;26.10;;;17.53;;
8704;SDS011;4389;41.932;25.904;2024-03-07T05:46:38;25.03;;;16.27;;
8704;SDS011;4389;41.932;25.904;2024-03-07T05:49:12;23.40;;;16.70;;
8704;SDS011;4389;41.932;25.904;2024-03-07T05:51:39;23.03;;;16.27;;
8704;SDS011;4389;41.932;25.904;2024-03-07T05:54:10;21.97;;;15.30;;
8704;SDS011;4389;41.932;25.904;2024-03-07T05:56:38;22.73;;;15.37;;
8704;SDS011;4389;41.932;25.904;2024-03-07T05:59:05;37.57;;;16.97;;
8704;SDS011;4389;41.932;25.904;2024-03-07T06:01:34;20.47;;;15.97;;
8704;SDS011;4389;41.932;25.904;2024-03-07T06:04:01;26.93;;;17.10;;
8704;SDS011;4389;41.932;25.904;2024-03-07T06:06:32;29.40;;;16.50;;
8704;SDS011;4389;41.932;25.904;2024-03-07T06:09:00;34.37;;;17.07;;
8704;SDS011;4389;41.932;25.904;2024-03-07T06:11:32;23.00;;;14.87;;
8704;SDS011;4389;41.932;25.904;2024-03-07T06:13:59;26.50;;;16.87;;
8704;SDS011;4389;41.932;25.904;2024-03-07T06:16:28;33.67;;;17.37;;
8704;SDS011;4389;41.932;25.904;2024-03-07T06:18:58;26.97;;;17.27;;
8704;SDS011;4389;41.932;25.904;2024-03-07T06:21:25;26.17;;;17.27;;
8704;SDS011;4389;41.932;25.904;2024-03-07T06:23:53;25.80;;;17.57;;
8704;SDS011;4389;41.932;25.904;2024-03-07T06:26:24;33.03;;;18.90;;
8704;SDS011;4389;41.932;25.904;2024-03-07T06:29:02;29.53;;;17.33;;
8704;SDS011;4389;41.932;25.904;2024-03-07T06:31:31;29.17;;;17.93;;
8704;SDS011;4389;41.932;25.904;2024-03-07T06:33:58;26.40;;;17.27;;
8704;SDS011;4389;41.932;25.904;2024-03-07T06:36:25;26.57;;;18.33;;
8704;SDS011;4389;41.932;25.904;2024-03-07T06:38:54;27.57;;;18.13;;
8704;SDS011;4389;41.932;25.904;2024-03-07T06:41:21;32.50;;;18.40;;
8704;SDS011;4389;41.932;25.904;2024-03-07T06:43:50;29.03;;;19.97;;
8704;SDS011;4389;41.932;25.904;2024-03-07T06:46:18;29.17;;;18.70;;
8704;SDS011;4389;41.932;25.904;2024-03-07T06:48:45;29.37;;;19.23;;
8704;SDS011;4389;41.932;25.904;2024-03-07T06:51:12;38.63;;;20.93;;
8704;SDS011;4389;41.932;25.904;2024-03-07T06:53:39;36.10;;;20.83;;
8704;SDS011;4389;41.932;25.904;2024-03-07T06:56:08;32.50;;;19.60;;
8704;SDS011;4389;41.932;25.904;2024-03-07T06:58:35;29.67;;;19.67;;
8704;SDS011;4389;41.932;25.904;2024-03-07T07:01:02;32.93;;;18.90;;
8704;SDS011;4389;41.932;25.904;2024-03-07T07:03:34;33.73;;;21.37;;
8704;SDS011;4389;41.932;25.904;2024-03-07T07:06:01;27.40;;;18.57;;
8704;SDS011;4389;41.932;25.904;2024-03-07T07:08:31;32.83;;;19.97;;
8704;SDS011;4389;41.932;25.904;2024-03-07T07:10:58;26.43;;;18.87;;
8704;SDS011;4389;41.932;25.904;2024-03-07T07:13:26;29.87;;;20.93;;
8704;SDS011;4389;41.932;25.904;2024-03-07T07:15:53;26.90;;;19.17;;
8704;SDS011;4389;41.932;25.904;2024-03-07T07:18:20;31.23;;;22.00;;
8704;SDS011;4389;41.932;25.904;2024-03-07T07:20:49;35.50;;;21.70;;
8704;SDS011;4389;41.932;25.904;2024-03-07T07:23:17;36.83;;;22.13;;
8704;SDS011;4389;41.932;25.904;2024-03-07T07:25:45;33.27;;;20.67;;
8704;SDS011;4389;41.932;25.904;2024-03-07T07:28:12;34.63;;;22.13;;
8704;SDS011;4389;41.932;25.904;2024-03-07T07:30:40;30.53;;;22.47;;
8704;SDS011;4389;41.932;25.904;2024-03-07T07:33:07;30.33;;;22.87;;
8704;SDS011;4389;41.932;25.904;2024-03-07T07:35:34;35.70;;;21.97;;
8704;SDS011;4389;41.932;25.904;2024-03-07T07:38:01;29.83;;;20.33;;
8704;SDS011;4389;41.932;25.904;2024-03-07T07:40:28;31.83;;;21.60;;
8704;SDS011;4389;41.932;25.904;2024-03-07T07:42:56;29.40;;;19.87;;
8704;SDS011;4389;41.932;25.904;2024-03-07T07:45:23;24.47;;;19.97;;
8704;SDS011;4389;41.932;25.904;2024-03-07T07:47:52;30.30;;;21.30;;
8704;SDS011;4389;41.932;25.904;2024-03-07T07:50:20;30.13;;;22.10;;
8704;SDS011;4389;41.932;25.904;2024-03-07T07:52:48;31.77;;;22.13;;
8704;SDS011;4389;41.932;25.904;2024-03-07T07:55:16;34.17;;;22.30;;
8704;SDS011;4389;41.932;25.904;2024-03-07T07:57:45;32.77;;;23.03;;
8704;SDS011;4389;41.932;25.904;2024-03-07T08:00:13;36.60;;;25.57;;
8704;SDS011;4389;41.932;25.904;2024-03-07T08:02:51;33.50;;;24.47;;
8704;SDS011;4389;41.932;25.904;2024-03-07T08:05:19;30.77;;;22.20;;
8704;SDS011;4389;41.932;25.904;2024-03-07T08:07:48;32.87;;;23.50;;
8704;SDS011;4389;41.932;25.904;2024-03-07T08:10:16;31.00;;;22.13;;
8704;SDS011;4389;41.932;25.904;2024-03-07T08:12:44;36.73;;;22.07;;
8704;SDS011;4389;41.932;25.904;2024-03-07T08:15:11;28.07;;;21.37;;
8704;SDS011;4389;41.932;25.904;2024-03-07T08:17:43;32.40;;;22.20;;
8704;SDS011;4389;41.932;25.904;2024-03-07T08:20:12;31.07;;;22.10;;
8704;SDS011;4389;41.932;25.904;2024-03-07T08:22:40;37.83;;;24.00;;
8704;SDS011;4389;41.932;25.904;2024-03-07T08:25:09;32.23;;;22.30;;
8704;SDS011;4389;41.932;25.904;2024-03-07T08:27:36;32.73;;;22.73;;
8704;SDS011;4389;41.932;25.904;2024-03-07T08:30:04;35.57;;;22.33;;
8704;SDS011;4389;41.932;25.904;2024-03-07T08:32:33;28.03;;;20.07;;
8704;SDS011;4389;41.932;25.904;2024-03-07T08:35:02;33.07;;;21.83;;
8704;SDS011;4389;41.932;25.904;2024-03-07T08:37:34;29.30;;;19.73;;
8704;SDS011;4389;41.932;25.904;2024-03-07T08:40:02;30.87;;;22.57;;
8704;SDS011;4389;41.932;25.904;2024-03-07T08:42:31;33.30;;;22.07;;
8704;SDS011;4389;41.932;25.904;2024-03-07T08:44:59;29.73;;;19.63;;
8704;SDS011;4389;41.932;25.904;2024-03-07T08:47:27;36.77;;;22.13;;
8704;SDS011;4389;41.932;25.904;2024-03-07T08:49:55;41.17;;;25.23;;
8704;SDS011;4389;41.932;25.904;2024-03-07T08:52:22;32.57;;;21.80;;
8704;SDS011;4389;41.932;25.904;2024-03-07T08:54:50;37.80;;;23.73;;
8704;SDS011;4389;41.932;25.904;2024-03-07T08:57:17;40.33;;;25.37;;
8704;SDS011;4389;41.932;25.904;2024-03-07T08:59:44;39.03;;;22.87;;
8704;SDS011;4389;41.932;25.904;2024-03-07T09:02:12;37.57;;;25.47;;
8704;SDS011;4389;41.932;25.904;2024-03-07T09:04:39;33.27;;;23.00;;
8704;SDS011;4389;41.932;25.904;2024-03-07T09:07:06;35.77;;;24.97;;
8704;SDS011;4389;41.932;25.904;2024-03-07T09:09:34;35.90;;;24.53;;
8704;SDS011;4389;41.932;25.904;2024-03-07T09:12:02;35.03;;;24.17;;
8704;SDS011;4389;41.932;25.904;2024-03-07T09:14:30;33.97;;;23.77;;
8704;SDS011;4389;41.932;25.904;2024-03-07T09:16:57;35.00;;;23.77;;
8704;SDS011;4389;41.932;25.904;2024-03-07T09:19:24;36.57;;;24.10;;
8704;SDS011;4389;41.932;25.904;2024-03-07T09:21:51;35.47;;;23.77;;
8704;SDS011;4389;41.932;25.904;2024-03-07T09:24:18;34.20;;;23.73;;
8704;SDS011;4389;41.932;25.904;2024-03-07T09:26:47;37.47;;;25.90;;
8704;SDS011;4389;41.932;25.904;2024-03-07T09:29:15;37.63;;;24.20;;
8704;SDS011;4389;41.932;25.904;2024-03-07T09:31:43;33.00;;;24.40;;
8704;SDS011;4389;41.932;25.904;2024-03-07T09:34:11;41.67;;;25.97;;
8704;SDS011;4389;41.932;25.904;2024-03-07T09:36:40;38.53;;;25.20;;
8704;SDS011;4389;41.932;25.904;2024-03-07T09:39:07;39.67;;;25.30;;
8704;SDS011;4389;41.932;25.904;2024-03-07T09:41:37;34.80;;;24.83;;
8704;SDS011;4389;41.932;25.904;2024-03-07T09:44:06;42.63;;;25.20;;
8704;SDS011;4389;41.932;25.904;2024-03-07T09:46:38;37.37;;;25.40;;
8704;SDS011;4389;41.932;25.904;2024-03-07T09:49:06;33.77;;;25.00;;
8704;SDS011;4389;41.932;25.904;2024-03-07T09:51:36;43.30;;;29.53;;
8704;SDS011;4389;41.932;25.904;2024-03-07T09:54:04;39.87;;;25.73;;
8704;SDS011;4389;41.932;25.904;2024-03-07T09:56:31;39.33;;;25.27;;
8704;SDS011;4389;41.932;25.904;2024-03-07T09:59:00;35.40;;;25.73;;
8704;SDS011;4389;41.932;25.904;2024-03-07T10:01:29;43.33;;;25.57;;
8704;SDS011;4389;41.932;25.904;2024-03-07T10:04:00;39.20;;;25.90;;
8704;SDS011;4389;41.932;25.904;2024-03-07T10:06:36;48.40;;;26.90;;
8704;SDS011;4389;41.932;25.904;2024-03-07T10:09:03;33.63;;;23.70;;
8704;SDS011;4389;41.932;25.904;2024-03-07T10:11:32;38.57;;;24.67;;
8704;SDS011;4389;41.932;25.904;2024-03-07T10:13:59;42.03;;;23.77;;
8704;SDS011;4389;41.932;25.904;2024-03-07T10:16:28;41.60;;;25.13;;
8704;SDS011;4389;41.932;25.904;2024-03-07T10:18:56;30.57;;;22.73;;
8704;SDS011;4389;41.932;25.904;2024-03-07T10:21:25;33.37;;;23.53;;
8704;SDS011;4389;41.932;25.904;2024-03-07T10:24:03;29.67;;;20.80;;
8704;SDS011;4389;41.932;25.904;2024-03-07T10:26:34;30.20;;;21.73;;
8704;SDS011;4389;41.932;25.904;2024-03-07T10:29:03;29.87;;;20.67;;
8704;SDS011;4389;41.932;25.904;2024-03-07T10:31:30;31.47;;;19.80;;
8704;SDS011;4389;41.932;25.904;2024-03-07T10:33:59;29.70;;;21.70;;
8704;SDS011;4389;41.932;25.904;2024-03-07T10:36:29;30.73;;;22.30;;
8704;SDS011;4389;41.932;25.904;2024-03-07T10:38:57;34.53;;;22.90;;
8704;SDS011;4389;41.932;25.904;2024-03-07T10:41:39;30.13;;;23.70;;
8704;SDS011;4389;41.932;25.904;2024-03-07T10:44:13;30.40;;;20.50;;
8704;SDS011;4389;41.932;25.904;2024-03-07T10:46:46;28.27;;;21.43;;
8704;SDS011;4389;41.932;25.904;2024-03-07T10:49:20;28.73;;;20.47;;
8704;SDS011;4389;41.932;25.904;2024-03-07T10:51:56;27.60;;;20.77;;
8704;SDS011;4389;41.932;25.904;2024-03-07T10:54:34;34.00;;;21.40;;
8704;SDS011;4389;41.932;25.904;2024-03-07T10:57:15;32.20;;;23.33;;
8704;SDS011;4389;41.932;25.904;2024-03-07T10:59:49;29.73;;;20.53;;
8704;SDS011;4389;41.932;25.904;2024-03-07T11:02:20;36.97;;;21.87;;
8704;SDS011;4389;41.932;25.904;2024-03-07T11:05:00;30.20;;;21.60;;
8704;SDS011;4389;41.932;25.904;2024-03-07T11:07:32;31.63;;;22.03;;
8704;SDS011;4389;41.932;25.904;2024-03-07T11:09:59;32.73;;;22.87;;
8704;SDS011;4389;41.932;25.904;2024-03-07T11:12:28;31.17;;;23.03;;
8704;SDS011;4389;41.932;25.904;2024-03-07T11:14:56;30.50;;;21.73;;
8704;SDS011;4389;41.932;25.904;2024-03-07T11:17:24;30.87;;;21.90;;
8704;SDS011;4389;41.932;25.904;2024-03-07T11:19:51;30.97;;;20.60;;
8704;SDS011;4389;41.932;25.904;2024-03-07T11:22:28;37.27;;;25.70;;
8704;SDS011;4389;41.932;25.904;2024-03-07T11:25:04;32.90;;;22.73;;
8704;SDS011;4389;41.932;25.904;2024-03-07T11:27:33;35.07;;;22.47;;
8704;SDS011;4389;41.932;25.904;2024-03-07T11:30:07;32.27;;;23.20;;
8704;SDS011;4389;41.932;25.904;2024-03-07T11:32:35;33.83;;;22.60;;
8704;SDS011;4389;41.932;25.904;2024-03-07T11:35:04;36.50;;;23.20;;
8704;SDS011;4389;41.932;25.904;2024-03-07T11:37:39;34.53;;;23.07;;
8704;SDS011;4389;41.932;25.904;2024-03-07T11:40:11;31.43;;;22.47;;
8704;SDS011;4389;41.932;25.904;2024-03-07T11:42:45;33.70;;;20.00;;
8704;SDS011;4389;41.932;25.904;2024-03-07T11:45:13;27.97;;;19.13;;
8704;SDS011;4389;41.932;25.904;2024-03-07T11:47:50;30.17;;;20.93;;
8704;SDS011;4389;41.932;25.904;2024-03-07T11:50:22;30.30;;;19.70;;
8704;SDS011;4389;41.932;25.904;2024-03-07T11:52:51;29.23;;;19.90;;
8704;SDS011;4389;41.932;25.904;2024-03-07T11:55:21;33.77;;;23.80;;
8704;SDS011;4389;41.932;25.904;2024-03-07T11:57:49;33.03;;;21.77;;
8704;SDS011;4389;41.932;25.904;2024-03-07T12:00:17;33.53;;;24.10;;
8704;SDS011;4389;41.932;25.904;2024-03-07T12:02:45;31.37;;;23.40;;
8704;SDS011;4389;41.932;25.904;2024-03-07T12:05:13;32.17;;;23.33;;
8704;SDS011;4389;41.932;25.904;2024-03-07T12:07:41;30.40;;;24.37;;
8704;SDS011;4389;41.932;25.904;2024-03-07T12:10:09;30.20;;;23.57;;
8704;SDS011;4389;41.932;25.904;2024-03-07T12:12:37;34.30;;;25.13;;
8704;SDS011;4389;41.932;25.904;2024-03-07T12:15:05;43.20;;;26.33;;
8704;SDS011;4389;41.932;25.904;2024-03-07T12:17:40;40.57;;;26.83;;
8704;SDS011;4389;41.932;25.904;2024-03-07T12:20:08;44.57;;;29.50;;
8704;SDS011;4389;41.932;25.904;2024-03-07T12:22:50;41.53;;;27.60;;
8704;SDS011;4389;41.932;25.904;2024-03-07T12:25:19;40.67;;;28.70;;
8704;SDS011;4389;41.932;25.904;2024-03-07T12:28:00;42.53;;;30.80;;
8704;SDS011;4389;41.932;25.904;2024-03-07T12:30:31;38.10;;;28.93;;
8704;SDS011;4389;41.932;25.904;2024-03-07T12:32:59;41.53;;;29.27;;
8704;SDS011;4389;41.932;25.904;2024-03-07T12:35:29;48.40;;;30.90;;
8704;SDS011;4389;41.932;25.904;2024-03-07T12:37:56;40.53;;;30.43;;
8704;SDS011;4389;41.932;25.904;2024-03-07T12:40:24;41.07;;;29.87;;
8704;SDS011;4389;41.932;25.904;2024-03-07T12:42:55;40.33;;;29.63;;
8704;SDS011;4389;41.932;25.904;2024-03-07T12:45:23;45.27;;;31.60;;
8704;SDS011;4389;41.932;25.904;2024-03-07T12:47:51;48.03;;;32.20;;
8704;SDS011;4389;41.932;25.904;2024-03-07T12:50:19;46.00;;;32.80;;
8704;SDS011;4389;41.932;25.904;2024-03-07T12:52:47;43.43;;;29.07;;
8704;SDS011;4389;41.932;25.904;2024-03-07T12:55:15;40.53;;;26.67;;
8704;SDS011;4389;41.932;25.904;2024-03-07T12:57:47;32.17;;;22.17;;
8704;SDS011;4389;41.932;25.904;2024-03-07T13:00:15;30.67;;;20.80;;
8704;SDS011;4389;41.932;25.904;2024-03-07T13:02:47;29.50;;;20.63;;
8704;SDS011;4389;41.932;25.904;2024-03-07T13:05:15;38.67;;;25.57;;
8704;SDS011;4389;41.932;25.904;2024-03-07T13:07:47;29.87;;;22.37;;
8704;SDS011;4389;41.932;25.904;2024-03-07T13:10:14;34.30;;;23.80;;
8704;SDS011;4389;41.932;25.904;2024-03-07T13:12:43;34.00;;;23.80;;
8704;SDS011;4389;41.932;25.904;2024-03-07T13:15:11;34.73;;;24.03;;
8704;SDS011;4389;41.932;25.904;2024-03-07T13:17:39;31.47;;;23.40;;
8704;SDS011;4389;41.932;25.904;2024-03-07T13:20:10;29.00;;;22.47;;
8704;SDS011;4389;41.932;25.904;2024-03-07T13:22:41;28.17;;;20.27;;
8704;SDS011;4389;41.932;25.904;2024-03-07T13:25:13;26.87;;;21.27;;
8704;SDS011;4389;41.932;25.904;2024-03-07T13:27:43;32.90;;;22.87;;
8704;SDS011;4389;41.932;25.904;2024-03-07T13:30:20;30.67;;;23.40;;
8704;SDS011;4389;41.932;25.904;2024-03-07T13:32:52;35.60;;;25.67;;
8704;SDS011;4389;41.932;25.904;2024-03-07T13:35:21;54.10;;;38.67;;
8704;SDS011;4389;41.932;25.904;2024-03-07T13:37:50;44.40;;;31.40;;
8704;SDS011;4389;41.932;25.904;2024-03-07T13:40:17;38.50;;;30.40;;
8704;SDS011;4389;41.932;25.904;2024-03-07T13:42:54;41.53;;;30.13;;
8704;SDS011;4389;41.932;25.904;2024-03-07T13:45:22;43.33;;;33.77;;
8704;SDS011;4389;41.932;25.904;2024-03-07T13:47:52;47.13;;;31.43;;
8704;SDS011;4389;41.932;25.904;2024-03-07T13:50:20;48.57;;;34.63;;
8704;SDS011;4389;41.932;25.904;2024-03-07T13:52:51;41.80;;;31.90;;
8704;SDS011;4389;41.932;25.904;2024-03-07T13:55:41;39.23;;;29.30;;
8704;SDS011;4389;41.932;25.904;2024-03-07T13:58:19;36.20;;;26.20;;
8704;SDS011;4389;41.932;25.904;2024-03-07T14:01:02;40.03;;;30.33;;
8704;SDS011;4389;41.932;25.904;2024-03-07T14:03:59;36.80;;;26.00;;
8704;SDS011;4389;41.932;25.904;2024-03-07T14:07:00;43.93;;;32.27;;
8704;SDS011;4389;41.932;25.904;2024-03-07T14:10:01;37.13;;;27.17;;
8704;SDS011;4389;41.932;25.904;2024-03-07T14:13:06;39.07;;;27.03;;
8704;SDS011;4389;41.932;25.904;2024-03-07T14:16:12;31.47;;;23.77;;
8704;SDS011;4389;41.932;25.904;2024-03-07T14:19:17;35.83;;;24.90;;
8704;SDS011;4389;41.932;25.904;2024-03-07T14:25:09;46.53;;;34.37;;
8704;SDS011;4389;41.932;25.904;2024-03-07T14:28:06;38.50;;;27.70;;
8704;SDS011;4389;41.932;25.904;2024-03-07T14:30:41;39.40;;;27.20;;
8704;SDS011;4389;41.932;25.904;2024-03-07T14:33:11;40.47;;;29.53;;
8704;SDS011;4389;41.932;25.904;2024-03-07T14:38:43;39.40;;;28.77;;
8704;SDS011;4389;41.932;25.904;2024-03-07T14:41:14;39.07;;;29.77;;
8704;SDS011;4389;41.932;25.904;2024-03-07T14:43:42;45.20;;;31.17;;
8704;SDS011;4389;41.932;25.904;2024-03-07T14:46:10;36.60;;;26.67;;
8704;SDS011;4389;41.932;25.904;2024-03-07T14:48:40;37.83;;;26.47;;
8704;SDS011;4389;41.932;25.904;2024-03-07T14:51:07;32.03;;;24.63;;
8704;SDS011;4389;41.932;25.904;2024-03-07T14:53:39;37.37;;;26.63;;